Time;durP1;ratioP1;P1;durP2;ratioP2;P2;SDS_P1;SDS_P2;PMS_P1;PMS_P2;Temp;Humidity;BMP_temperature;BMP_pressure;BME280_temperature;BME280_humidity;BME280_pressure;Samples;Min_cycle;Max_cycle;Signal;HPM_P1;HPM_P2
2023/10/20 00:00:44;;;;;;;1.83;1.58;;;19.00;67.30;;;;;;5012413;28;20307;-60
2023/10/20 00:03:15;;;;;;;3.72;1.90;;;19.00;67.30;;;;;;5030200;28;20223;-59
2023/10/20 00:05:46;;;;;;;3.33;1.50;;;19.00;67.30;;;;;;5043567;28;20223;-61
2023/10/20 00:08:20;;;;;;;5.35;1.77;;;19.00;67.30;;;;;;5065598;28;20215;-57
2023/10/20 00:11:03;;;;;;;3.72;1.50;;;19.00;67.30;;;;;;5036278;28;20203;-60
2023/10/20 00:13:38;;;;;;;3.45;1.73;;;19.00;67.30;;;;;;5057237;28;20635;-61
2023/10/20 00:16:07;;;;;;;6.72;1.40;;;19.00;67.30;;;;;;5058967;28;20215;-61
2023/10/20 00:18:40;;;;;;;3.60;1.55;;;19.00;67.30;;;;;;5029696;28;20246;-57
2023/10/20 00:21:09;;;;;;;2.15;1.60;;;19.00;67.30;;;;;;5067153;28;20229;-61
2023/10/20 00:23:43;;;;;;;3.05;1.67;;;19.00;67.30;;;;;;5048544;28;20281;-60
2023/10/20 00:26:15;;;;;;;2.53;1.60;;;19.00;67.30;;;;;;4971308;28;20228;-61
2023/10/20 00:28:45;;;;;;;2.05;1.60;;;19.00;67.30;;;;;;4975340;28;20213;-60
2023/10/20 00:31:16;;;;;;;3.63;1.90;;;19.00;67.30;;;;;;4960885;28;20286;-61
2023/10/20 00:33:49;;;;;;;2.50;1.50;;;19.00;67.30;;;;;;4983420;28;20225;-58
2023/10/20 00:36:22;;;;;;;3.67;1.50;;;19.00;67.30;;;;;;4956730;28;20251;-60
2023/10/20 00:41:35;;;;;;;4.38;2.00;;;19.00;67.30;;;;;;5020975;28;20197;-61
2023/10/20 00:44:05;;;;;;;3.05;1.67;;;19.00;67.30;;;;;;4983068;28;20221;-61
2023/10/20 00:46:38;;;;;;;3.65;1.75;;;19.00;68.10;;;;;;5021717;28;20221;-61
2023/10/20 00:49:14;;;;;;;3.00;2.08;;;19.00;67.40;;;;;;5011500;28;20283;-62
2023/10/20 00:51:45;;;;;;;3.05;1.83;;;19.00;67.30;;;;;;4961664;28;20200;-61
2023/10/20 00:54:20;;;;;;;3.42;2.00;;;19.00;67.30;;;;;;5012311;28;20221;-58
2023/10/20 00:56:49;;;;;;;4.72;1.77;;;19.00;67.30;;;;;;5025627;28;20202;-60
2023/10/20 00:59:19;;;;;;;3.97;2.00;;;19.00;67.40;;;;;;5056807;28;20210;-58
2023/10/20 01:01:47;;;;;;;3.25;2.08;;;19.00;67.40;;;;;;5091403;28;20230;-59
2023/10/20 01:04:19;;;;;;;2.97;2.08;;;19.00;67.30;;;;;;5101033;28;20300;-61
2023/10/20 01:06:53;;;;;;;3.47;1.75;;;19.00;67.30;;;;;;5039107;28;20271;-58
2023/10/20 01:09:33;;;;;;;3.75;1.95;;;19.00;67.40;;;;;;5108382;28;20215;-58
2023/10/20 01:12:06;;;;;;;3.08;1.77;;;19.00;67.40;;;;;;5102309;28;20177;-59
2023/10/20 01:14:42;;;;;;;3.20;1.90;;;19.00;67.30;;;;;;5097893;28;20221;-57
2023/10/20 01:17:11;;;;;;;2.55;1.70;;;19.00;67.40;;;;;;5044944;28;20744;-61
2023/10/20 01:19:45;;;;;;;3.22;2.10;;;19.00;67.40;;;;;;5054017;28;20225;-61
2023/10/20 01:22:37;;;;;;;3.40;1.98;;;19.00;67.40;;;;;;5107917;28;20194;-61
2023/10/20 01:25:10;;;;;;;2.80;1.83;;;19.00;67.40;;;;;;5061440;28;20202;-59
2023/10/20 01:27:53;;;;;;;3.00;1.70;;;19.00;67.40;;;;;;5048210;28;20225;-61
2023/10/20 01:30:22;;;;;;;4.70;1.75;;;19.00;67.40;;;;;;5052348;28;20198;-60
2023/10/20 01:32:52;;;;;;;3.63;1.67;;;18.90;67.30;;;;;;5109260;28;20666;-60
2023/10/20 01:35:22;;;;;;;3.35;1.70;;;19.00;67.40;;;;;;5099026;28;20201;-61
2023/10/20 01:37:54;;;;;;;3.45;1.80;;;19.00;67.40;;;;;;5103371;28;20642;-60
2023/10/20 01:40:28;;;;;;;3.25;1.83;;;19.00;67.40;;;;;;5106505;28;20268;-60
2023/10/20 01:42:58;;;;;;;3.42;2.03;;;19.00;67.40;;;;;;5096572;28;20678;-62
2023/10/20 01:45:25;;;;;;;3.20;1.83;;;19.00;67.40;;;;;;5088778;28;20186;-61
2023/10/20 01:47:54;;;;;;;3.58;1.70;;;19.00;67.40;;;;;;5049670;28;20262;-61
2023/10/20 01:50:24;;;;;;;5.13;1.80;;;19.00;67.40;;;;;;5099617;28;20556;-61
2023/10/20 01:52:51;;;;;;;3.63;1.73;;;18.90;67.30;;;;;;5108952;28;20186;-60
2023/10/20 01:55:18;;;;;;;4.65;1.73;;;18.90;67.30;;;;;;5098296;28;20189;-61
2023/10/20 01:57:47;;;;;;;2.55;1.65;;;19.00;67.40;;;;;;5103720;28;20281;-59
2023/10/20 02:00:15;;;;;;;4.60;1.95;;;18.90;67.30;;;;;;5104227;28;20177;-57
2023/10/20 02:02:42;;;;;;;2.72;1.58;;;18.90;67.30;;;;;;5096119;28;20195;-62
2023/10/20 02:05:09;;;;;;;2.15;1.70;;;19.00;67.40;;;;;;5093662;28;20258;-56
2023/10/20 02:07:37;;;;;;;3.72;1.80;;;18.90;67.30;;;;;;5097505;28;20212;-61
2023/10/20 02:10:06;;;;;;;2.80;1.55;;;18.90;67.30;;;;;;5102587;28;20361;-61
2023/10/20 02:12:34;;;;;;;2.22;1.70;;;18.90;67.30;;;;;;5095853;28;20660;-61
2023/10/20 02:15:03;;;;;;;2.58;1.58;;;18.90;67.30;;;;;;5098801;28;20217;-61
2023/10/20 02:17:30;;;;;;;2.28;1.60;;;18.90;67.30;;;;;;5106247;28;20198;-59
2023/10/20 02:19:59;;;;;;;2.88;1.70;;;18.90;67.30;;;;;;5102628;28;20653;-61
2023/10/20 02:22:26;;;;;;;2.15;1.55;;;18.90;67.30;;;;;;5106857;28;20193;-59
2023/10/20 02:24:54;;;;;;;3.35;1.60;;;18.90;67.30;;;;;;5095778;28;20221;-59
2023/10/20 02:27:21;;;;;;;2.72;1.67;;;18.90;67.40;;;;;;5107071;28;20589;-60
2023/10/20 02:29:48;;;;;;;2.83;1.70;;;18.90;67.30;;;;;;5099231;28;20615;-60
2023/10/20 02:34:57;;;;;;;2.90;2.05;;;18.90;67.30;;;;;;5046063;28;20375;-61
2023/10/20 02:37:25;;;;;;;4.00;1.70;;;18.90;67.30;;;;;;5035211;28;20196;-61
2023/10/20 02:39:52;;;;;;;2.17;1.48;;;18.90;67.30;;;;;;5039269;28;20217;-59
2023/10/20 02:42:19;;;;;;;3.05;1.67;;;18.90;67.30;;;;;;5043086;28;20301;-60
2023/10/20 02:44:46;;;;;;;1.88;1.55;;;18.90;67.30;;;;;;5032738;28;20769;-59
2023/10/20 02:47:14;;;;;;;3.53;1.63;;;18.90;67.30;;;;;;5044046;28;20216;-60
2023/10/20 02:49:42;;;;;;;4.28;1.60;;;18.90;67.30;;;;;;5037362;28;20243;-61
2023/10/20 02:52:13;;;;;;;5.15;1.55;;;18.90;67.40;;;;;;5036197;28;20549;-62
2023/10/20 02:54:40;;;;;;;2.63;1.60;;;18.90;67.30;;;;;;5044843;28;20223;-61
2023/10/20 02:57:07;;;;;;;2.85;1.85;;;18.90;67.30;;;;;;5043067;28;20188;-61
2023/10/20 02:59:34;;;;;;;2.13;1.63;;;18.90;67.30;;;;;;5036012;28;20219;-62
2023/10/20 03:02:02;;;;;;;4.22;2.05;;;18.90;67.30;;;;;;5037342;28;20310;-61
2023/10/20 03:04:30;;;;;;;4.28;1.85;;;18.90;68.10;;;;;;5043243;28;20302;-59
2023/10/20 03:06:58;;;;;;;2.63;1.50;;;18.90;67.30;;;;;;5069816;28;20302;-61
2023/10/20 03:09:25;;;;;;;2.55;1.45;;;18.90;67.30;;;;;;5071569;28;20206;-59
2023/10/20 03:11:53;;;;;;;3.60;1.80;;;18.90;67.30;;;;;;5065337;28;20574;-58
2023/10/20 03:14:21;;;;;;;2.78;1.50;;;18.90;67.40;;;;;;5070542;28;20218;-59
2023/10/20 03:16:48;;;;;;;3.45;1.45;;;18.90;67.40;;;;;;5069692;28;20274;-61
2023/10/20 03:19:15;;;;;;;3.47;1.58;;;18.90;67.30;;;;;;5071170;28;20219;-61
2023/10/20 03:21:42;;;;;;;1.90;1.45;;;18.90;67.30;;;;;;5070167;28;20268;-59
2023/10/20 03:24:11;;;;;;;2.67;1.73;;;18.90;67.40;;;;;;5070504;28;20238;-60
2023/10/20 03:26:38;;;;;;;3.80;1.65;;;18.80;67.20;;;;;;5070974;28;20298;-57
2023/10/20 03:29:05;;;;;;;2.35;1.75;;;18.90;67.30;;;;;;5070240;28;20297;-60
2023/10/20 03:31:33;;;;;;;2.25;1.38;;;18.90;67.30;;;;;;5070677;28;20187;-61
2023/10/20 03:34:00;;;;;;;2.15;1.23;;;18.90;67.30;;;;;;5070507;28;20685;-61
2023/10/20 03:36:28;;;;;;;3.33;1.40;;;18.90;67.30;;;;;;5070386;28;20252;-59
2023/10/20 03:38:56;;;;;;;2.95;1.40;;;18.80;67.20;;;;;;5070584;28;20253;-61
2023/10/20 03:41:25;;;;;;;3.30;1.40;;;18.90;67.30;;;;;;5070856;28;20274;-60
2023/10/20 03:43:53;;;;;;;2.85;1.50;;;18.80;67.20;;;;;;5070214;28;20225;-60
2023/10/20 03:46:20;;;;;;;1.77;1.40;;;18.80;67.20;;;;;;5064650;28;20222;-60
2023/10/20 03:48:47;;;;;;;2.47;1.48;;;18.80;67.20;;;;;;5070782;28;20222;-61
2023/10/20 03:51:16;;;;;;;3.75;1.35;;;18.80;67.20;;;;;;5069539;28;20226;-61
2023/10/20 03:53:50;;;;;;;2.25;1.38;;;18.80;67.20;;;;;;5070695;28;20215;-59
2023/10/20 03:56:18;;;;;;;1.70;1.02;;;18.80;67.10;;;;;;5070185;28;20194;-59
2023/10/20 03:58:47;;;;;;;1.92;1.38;;;18.80;67.20;;;;;;5070279;28;20711;-59
2023/10/20 04:01:14;;;;;;;2.17;1.25;;;18.80;67.20;;;;;;5083301;28;20233;-61
2023/10/20 04:03:43;;;;;;;1.92;1.35;;;18.80;67.20;;;;;;5098200;28;20263;-61
2023/10/20 04:06:11;;;;;;;2.08;1.20;;;18.80;67.10;;;;;;5101509;28;20195;-62
2023/10/20 04:08:38;;;;;;;3.13;1.30;;;18.80;67.10;;;;;;5094803;28;20245;-61
2023/10/20 04:11:05;;;;;;;4.15;1.25;;;18.80;67.10;;;;;;5106332;28;20178;-59
2023/10/20 04:13:33;;;;;;;2.65;1.30;;;18.80;67.10;;;;;;5097134;28;20530;-60
2023/10/20 04:16:12;;;;;;;2.53;1.45;;;18.80;67.10;;;;;;5099696;28;20201;-58
2023/10/20 04:18:42;;;;;;;2.75;1.20;;;18.80;67.10;;;;;;5106874;28;20217;-60
2023/10/20 04:21:11;;;;;;;3.63;1.30;;;18.80;67.10;;;;;;5103297;28;20269;-61
2023/10/20 04:23:38;;;;;;;3.03;1.17;;;18.80;67.10;;;;;;5098359;28;20209;-60
2023/10/20 04:26:15;;;;;;;2.20;1.13;;;18.80;67.10;;;;;;5099432;28;20186;-61
2023/10/20 04:28:44;;;;;;;2.22;1.23;;;18.80;67.00;;;;;;5100360;28;20315;-58
2023/10/20 04:45:18;;;;;;;1.48;1.10;;;18.80;66.90;;;;;;5109707;28;20205;-58
2023/10/20 04:53:32;;;;;;;2.75;1.23;;;18.70;66.80;;;;;;5098571;28;20220;-61
2023/10/20 04:58:54;;;;;;;4.10;1.05;;;18.70;66.80;;;;;;5097871;28;20314;-59
2023/10/20 05:01:26;;;;;;;2.60;1.15;;;18.70;66.80;;;;;;5108783;28;20230;-62
2023/10/20 05:03:57;;;;;;;1.77;1.05;;;18.70;66.80;;;;;;5103434;28;20217;-61
2023/10/20 05:06:26;;;;;;;1.63;1.00;;;18.70;66.80;;;;;;5100690;28;20217;-58
2023/10/20 05:08:53;;;;;;;1.30;0.93;;;18.70;66.90;;;;;;5110338;28;20251;-61
2023/10/20 05:11:21;;;;;;;2.75;1.10;;;18.70;66.80;;;;;;5098507;28;20178;-60
2023/10/20 05:13:48;;;;;;;1.52;1.10;;;18.70;66.80;;;;;;5104871;28;20217;-61
2023/10/20 05:16:16;;;;;;;1.95;1.17;;;18.70;66.90;;;;;;5106440;28;20192;-60
2023/10/20 05:18:44;;;;;;;1.33;1.08;;;18.70;66.80;;;;;;5097185;28;20213;-60
2023/10/20 05:21:13;;;;;;;4.35;1.10;;;18.70;66.80;;;;;;5105288;28;20236;-61
2023/10/20 05:23:43;;;;;;;1.48;1.10;;;18.70;66.80;;;;;;5104164;28;20260;-59
2023/10/20 05:26:11;;;;;;;3.78;1.33;;;18.70;66.70;;;;;;5105264;28;20216;-60
2023/10/20 05:28:38;;;;;;;3.28;1.50;;;18.70;66.70;;;;;;5101028;28;20698;-60
2023/10/20 05:31:05;;;;;;;1.98;1.48;;;18.70;66.70;;;;;;5096152;28;20181;-60
2023/10/20 05:33:32;;;;;;;2.28;1.40;;;18.70;66.70;;;;;;5099789;28;20220;-60
2023/10/20 05:36:04;;;;;;;2.08;1.42;;;18.70;66.80;;;;;;5104263;28;20221;-58
2023/10/20 05:38:33;;;;;;;1.65;1.55;;;18.70;66.70;;;;;;5097903;28;20734;-59
2023/10/20 05:41:00;;;;;;;2.63;1.58;;;18.70;66.70;;;;;;5096885;28;20268;-59
2023/10/20 05:43:30;;;;;;;3.97;1.60;;;18.70;66.60;;;;;;5107440;28;20228;-61
2023/10/20 05:45:57;;;;;;;2.60;1.40;;;18.70;66.70;;;;;;5104435;28;20192;-60
2023/10/20 05:48:24;;;;;;;1.83;1.50;;;18.70;66.70;;;;;;5098129;28;20236;-61
2023/10/20 05:50:56;;;;;;;3.22;1.40;;;18.70;66.60;;;;;;5104244;28;20189;-60
2023/10/20 05:53:23;;;;;;;3.28;1.60;;;18.70;66.70;;;;;;5099160;28;20209;-59
2023/10/20 05:55:52;;;;;;;3.47;1.40;;;18.70;66.70;;;;;;5105284;28;20281;-61
2023/10/20 05:58:19;;;;;;;3.00;1.90;;;18.70;66.60;;;;;;5094344;28;20217;-59
2023/10/20 06:00:47;;;;;;;2.13;1.70;;;18.70;66.60;;;;;;5108844;28;20209;-59
2023/10/20 06:03:15;;;;;;;2.35;1.55;;;18.70;66.60;;;;;;5113438;28;20308;-61
2023/10/20 06:05:42;;;;;;;4.38;1.80;;;18.70;67.40;;;;;;5112599;28;20203;-61
2023/10/20 06:08:09;;;;;;;4.32;1.83;;;18.70;66.60;;;;;;5113666;28;20286;-61
2023/10/20 06:10:36;;;;;;;2.80;1.90;;;18.70;66.60;;;;;;5110037;28;20268;-61
2023/10/20 06:13:05;;;;;;;3.03;1.40;;;18.70;66.60;;;;;;5107497;28;20189;-60
2023/10/20 06:15:32;;;;;;;3.53;1.45;;;18.70;66.60;;;;;;5113281;28;20194;-58
2023/10/20 06:17:59;;;;;;;3.10;1.50;;;18.70;66.60;;;;;;5113074;28;20185;-60
2023/10/20 06:20:27;;;;;;;2.53;1.90;;;18.70;66.60;;;;;;5113289;28;20234;-60
2023/10/20 06:22:54;;;;;;;3.83;1.60;;;18.70;66.60;;;;;;5113486;28;20266;-61
2023/10/20 06:25:22;;;;;;;1.88;1.50;;;18.70;66.60;;;;;;5112714;28;20266;-61
2023/10/20 06:27:48;;;;;;;1.42;1.33;;;18.70;66.60;;;;;;5113230;28;20742;-61
2023/10/20 06:33:16;;;;;;;2.40;1.60;;;18.70;66.60;;;;;;5105332;28;20197;-62
2023/10/20 06:35:52;;;;;;;2.15;1.40;;;18.70;66.60;;;;;;5112836;28;20192;-59
2023/10/20 06:38:36;;;;;;;3.03;1.92;;;18.60;66.50;;;;;;5112618;28;20308;-60
2023/10/20 06:41:04;;;;;;;2.90;1.80;;;18.70;66.60;;;;;;5098474;28;20206;-58
2023/10/20 06:43:31;;;;;;;2.38;1.90;;;18.70;66.50;;;;;;5112468;28;20252;-60
2023/10/20 06:46:00;;;;;;;2.15;1.63;;;18.70;66.50;;;;;;5108939;28;20260;-57
2023/10/20 06:48:29;;;;;;;2.55;1.75;;;18.70;66.60;;;;;;5111453;28;20554;-61
2023/10/20 06:50:56;;;;;;;2.67;1.85;;;18.70;66.60;;;;;;5102686;28;20265;-60
2023/10/20 06:53:23;;;;;;;3.65;1.90;;;18.70;66.50;;;;;;5111725;28;20248;-60
2023/10/20 06:55:50;;;;;;;2.20;1.77;;;18.60;66.40;;;;;;5090393;28;20769;-60
2023/10/20 06:58:18;;;;;;;2.63;1.80;;;18.70;66.50;;;;;;5106890;28;20197;-61
2023/10/20 07:00:46;;;;;;;2.42;1.73;;;18.70;66.50;;;;;;5111740;28;20217;-59
2023/10/20 07:06:33;;;;;;;4.50;2.22;;;18.70;66.50;;;;;;5043732;28;20913;-59
2023/10/20 07:11:42;;;;;;;4.07;1.70;;;18.70;66.50;;;;;;5088380;28;20693;-61
2023/10/20 07:14:15;;;;;;;4.72;1.90;;;18.70;66.60;;;;;;5110167;28;20252;-59
2023/10/20 07:16:42;;;;;;;2.45;1.80;;;18.70;66.60;;;;;;5097364;28;20560;-64
2023/10/20 07:19:12;;;;;;;3.67;1.60;;;18.70;66.60;;;;;;5102350;28;20213;-62
2023/10/20 07:21:39;;;;;;;2.35;1.65;;;18.80;66.70;;;;;;5085821;28;20662;-63
2023/10/20 07:24:06;;;;;;;3.33;1.80;;;18.80;66.70;;;;;;5088702;28;20740;-60
2023/10/20 07:26:33;;;;;;;6.32;2.00;;;18.90;66.90;;;;;;5105062;28;20615;-65
2023/10/20 07:29:02;;;;;;;5.97;1.80;;;18.90;67.00;;;;;;5079260;28;20263;-63
2023/10/20 07:31:28;;;;;;;2.28;1.80;;;19.00;67.10;;;;;;5082528;28;20202;-63
2023/10/20 07:33:56;;;;;;;4.93;1.70;;;19.00;67.00;;;;;;5089784;28;20244;-62
2023/10/20 07:36:25;;;;;;;11.63;1.80;;;19.00;66.90;;;;;;5092464;28;20556;-61
2023/10/20 07:38:52;;;;;;;5.03;1.55;;;19.10;66.90;;;;;;5077973;28;20225;-62
2023/10/20 07:41:19;;;;;;;2.58;1.88;;;19.10;66.90;;;;;;5100990;28;20195;-63
2023/10/20 07:43:45;;;;;;;5.13;1.77;;;19.20;67.00;;;;;;5073752;28;20197;-62
2023/10/20 07:46:16;;;;;;;2.72;1.70;;;19.20;67.00;;;;;;5100246;28;20221;-63
2023/10/20 07:48:49;;;;;;;3.05;1.67;;;19.20;66.80;;;;;;5095802;28;20205;-58
2023/10/20 07:51:16;;;;;;;3.85;1.70;;;19.20;67.50;;;;;;5089629;28;20212;-61
2023/10/20 07:53:45;;;;;;;6.13;1.80;;;19.30;66.70;;;;;;5104821;28;20200;-59
2023/10/20 07:56:12;;;;;;;2.58;1.48;;;19.30;66.90;;;;;;5095220;28;20559;-58
2023/10/20 07:58:39;;;;;;;3.28;1.52;;;19.30;67.50;;;;;;5090883;28;20582;-58
2023/10/20 08:01:07;;;;;;;3.63;2.00;;;19.30;66.70;;;;;;5094470;28;20312;-60
2023/10/20 08:03:34;;;;;;;2.30;1.42;;;19.40;66.60;;;;;;5094940;28;20242;-58
2023/10/20 08:06:02;;;;;;;4.97;1.80;;;19.40;66.40;;;;;;5107133;28;20217;-60
2023/10/20 08:08:30;;;;;;;4.10;1.90;;;19.40;66.40;;;;;;5104645;28;20209;-57
2023/10/20 08:14:01;;;;;;;3.95;1.83;;;19.50;66.40;;;;;;5009697;28;20209;-55
2023/10/20 08:16:28;;;;;;;5.22;1.98;;;19.50;66.30;;;;;;5039789;28;20224;-58
2023/10/20 08:18:55;;;;;;;8.98;1.80;;;19.40;66.30;;;;;;5091562;28;20202;-61
2023/10/20 08:21:29;;;;;;;4.93;1.80;;;19.50;66.50;;;;;;5098884;28;20204;-61
2023/10/20 08:23:59;;;;;;;8.93;2.00;;;19.60;66.60;;;;;;5088781;28;20261;-58
2023/10/20 08:29:11;;;;;;;3.35;1.85;;;19.70;66.60;;;;;;5074608;28;20756;-59
2023/10/20 08:31:38;;;;;;;2.28;1.70;;;19.70;66.40;;;;;;5087733;28;20197;-57
2023/10/20 08:34:05;;;;;;;2.70;1.60;;;19.70;66.30;;;;;;5093138;28;20227;-60
2023/10/20 08:36:33;;;;;;;2.33;1.70;;;19.80;66.20;;;;;;5079908;28;20195;-59
2023/10/20 08:39:01;;;;;;;4.32;1.70;;;19.80;66.00;;;;;;5089726;28;20197;-58
2023/10/20 08:41:30;;;;;;;6.15;1.83;;;19.80;65.80;;;;;;5085061;28;20331;-60
2023/10/20 08:43:58;;;;;;;6.28;1.83;;;19.80;65.80;;;;;;5093264;28;20197;-61
2023/10/20 08:46:27;;;;;;;6.00;2.00;;;19.80;65.70;;;;;;5088775;28;20874;-58
2023/10/20 08:48:55;;;;;;;3.05;1.60;;;19.90;65.90;;;;;;5089451;28;20214;-61
2023/10/20 08:51:24;;;;;;;3.63;2.10;;;19.90;66.70;;;;;;5095248;28;20221;-61
2023/10/20 08:53:50;;;;;;;11.45;2.55;;;19.90;65.90;;;;;;5087854;28;20199;-61
2023/10/20 08:56:18;;;;;;;4.63;1.63;;;19.90;65.90;;;;;;5082210;28;20320;-59
2023/10/20 08:58:50;;;;;;;4.25;1.80;;;19.90;65.90;;;;;;5095305;28;20233;-60
2023/10/20 09:01:18;;;;;;;2.63;1.67;;;19.90;65.90;;;;;;5099358;28;20238;-59
2023/10/20 09:03:46;;;;;;;4.22;1.95;;;19.90;65.90;;;;;;5092209;28;20202;-60
2023/10/20 09:06:15;;;;;;;3.60;1.73;;;20.00;65.90;;;;;;5086901;28;20214;-61
2023/10/20 09:08:47;;;;;;;6.93;2.08;;;20.00;66.00;;;;;;5086656;28;20221;-57
2023/10/20 09:11:14;;;;;;;3.40;1.70;;;20.00;65.90;;;;;;5085286;28;21770;-54
2023/10/20 09:13:44;;;;;;;5.13;1.70;;;20.00;65.90;;;;;;5095742;28;20663;-62
2023/10/20 09:17:03;;;;;;;2.80;1.98;;;20.00;66.00;;;;;;5094632;28;20764;-60
2023/10/20 09:19:33;;;;;;;5.38;1.80;;;20.00;66.00;;;;;;4988931;28;20388;-59
2023/10/20 09:22:01;;;;;;;11.02;1.88;;;20.00;66.00;;;;;;5008093;28;20333;-61
2023/10/20 09:24:31;;;;;;;7.18;1.95;;;20.10;66.10;;;;;;5022281;28;20196;-58
2023/10/20 09:27:02;;;;;;;4.40;1.88;;;20.10;66.10;;;;;;5024308;28;20220;-59
2023/10/20 09:29:30;;;;;;;5.65;1.80;;;20.10;66.10;;;;;;5008589;28;20784;-60
2023/10/20 09:32:00;;;;;;;4.07;1.73;;;20.10;66.10;;;;;;5006888;28;20225;-62
2023/10/20 09:34:27;;;;;;;5.55;1.98;;;20.10;66.10;;;;;;5007320;28;20246;-58
2023/10/20 09:40:14;;;;;;;3.42;1.75;;;20.10;66.80;;;;;;4991154;28;20331;-60
2023/10/20 09:42:57;;;;;;;8.68;1.70;;;20.10;66.10;;;;;;5026350;28;20208;-60
2023/10/20 09:45:33;;;;;;;7.43;1.70;;;20.10;66.00;;;;;;5006023;28;20251;-62
2023/10/20 09:48:05;;;;;;;5.93;1.80;;;20.10;66.00;;;;;;5007250;28;20243;-61
2023/10/20 09:50:46;;;;;;;8.15;2.40;;;20.20;66.10;;;;;;5021258;28;20415;-61
2023/10/20 09:53:14;;;;;;;9.32;2.55;;;20.20;66.10;;;;;;5005033;28;20258;-62
2023/10/20 09:55:43;;;;;;;7.43;1.73;;;20.20;66.10;;;;;;5069238;28;20229;-60
2023/10/20 10:00:56;;;;;;;6.45;1.83;;;20.20;66.00;;;;;;5059115;28;20225;-61
2023/10/20 10:03:34;;;;;;;8.18;1.60;;;20.30;66.10;;;;;;5095445;28;20213;-63
2023/10/20 10:06:03;;;;;;;4.80;1.80;;;20.20;65.90;;;;;;5102347;28;20220;-60
2023/10/20 10:08:31;;;;;;;4.35;1.55;;;20.20;65.90;;;;;;5094381;28;20220;-62
2023/10/20 10:11:00;;;;;;;6.78;1.60;;;20.20;65.90;;;;;;5105079;28;20213;-62
2023/10/20 10:13:35;;;;;;;4.80;1.98;;;20.10;65.90;;;;;;5091639;28;20197;-63
2023/10/20 10:16:13;;;;;;;10.32;2.20;;;20.10;66.00;;;;;;5100411;28;20305;-64
2023/10/20 10:18:46;;;;;;;6.50;1.85;;;20.10;66.00;;;;;;5093850;28;20248;-62
2023/10/20 10:21:25;;;;;;;4.88;1.65;;;20.00;66.00;;;;;;5092926;28;20662;-62
2023/10/20 10:24:15;;;;;;;4.30;1.50;;;20.00;65.90;;;;;;5101879;28;20271;-62
2023/10/20 10:26:53;;;;;;;4.90;1.35;;;20.00;66.00;;;;;;5095511;28;20247;-62
2023/10/20 10:29:41;;;;;;;3.53;1.58;;;19.90;65.90;;;;;;5104792;28;20213;-62
2023/10/20 10:32:11;;;;;;;3.10;1.70;;;19.90;65.80;;;;;;5096611;28;20714;-62
2023/10/20 10:34:45;;;;;;;2.90;1.67;;;19.90;65.80;;;;;;5095956;28;20647;-62
2023/10/20 10:37:15;;;;;;;6.97;1.85;;;19.90;65.90;;;;;;5104245;28;20232;-62
2023/10/20 10:39:43;;;;;;;5.07;1.80;;;19.80;65.70;;;;;;5093431;28;20292;-61
2023/10/20 10:42:12;;;;;;;4.13;1.70;;;19.80;65.70;;;;;;5099259;28;20214;-62
2023/10/20 10:44:39;;;;;;;2.70;1.50;;;19.90;65.90;;;;;;5100577;28;20197;-61
2023/10/20 10:47:17;;;;;;;6.05;1.50;;;19.80;65.70;;;;;;5089092;28;20268;-63
2023/10/20 10:49:48;;;;;;;5.13;1.98;;;19.90;65.90;;;;;;5108245;28;20223;-62
2023/10/20 10:52:18;;;;;;;6.35;1.55;;;19.80;65.70;;;;;;5098535;28;20702;-62
2023/10/20 10:54:46;;;;;;;7.30;1.88;;;19.80;65.70;;;;;;5102174;28;20189;-60
2023/10/20 10:57:16;;;;;;;6.38;1.83;;;19.80;65.70;;;;;;5095093;28;20220;-62
2023/10/20 10:59:44;;;;;;;3.70;1.75;;;19.80;65.70;;;;;;5093751;28;20575;-63
2023/10/20 11:02:11;;;;;;;5.43;1.73;;;19.80;65.70;;;;;;5099076;28;20872;-63
2023/10/20 11:04:38;;;;;;;3.95;1.80;;;19.80;65.70;;;;;;5100274;28;20733;-62
2023/10/20 11:07:06;;;;;;;3.45;1.50;;;19.70;65.70;;;;;;5091736;28;20264;-62
2023/10/20 11:09:34;;;;;;;6.65;1.90;;;19.80;65.70;;;;;;5104431;28;20656;-62
2023/10/20 11:12:04;;;;;;;4.93;1.58;;;19.80;65.70;;;;;;5096032;28;20209;-61
2023/10/20 11:14:33;;;;;;;7.97;1.73;;;19.80;65.70;;;;;;5096484;28;20261;-60
2023/10/20 11:17:04;;;;;;;4.28;1.90;;;19.70;65.70;;;;;;5104104;28;20212;-61
2023/10/20 11:19:31;;;;;;;4.63;1.60;;;19.70;65.70;;;;;;5099429;28;20197;-62
2023/10/20 11:21:58;;;;;;;6.32;1.52;;;19.70;65.80;;;;;;5095345;28;20252;-63
2023/10/20 11:24:28;;;;;;;4.30;1.58;;;19.70;65.90;;;;;;5097149;28;20193;-63
2023/10/20 11:26:59;;;;;;;4.70;1.73;;;19.70;65.90;;;;;;5103541;28;20626;-62
2023/10/20 11:29:28;;;;;;;5.05;2.25;;;19.70;66.00;;;;;;5104115;28;20205;-63
2023/10/20 11:31:59;;;;;;;5.40;1.65;;;19.70;66.10;;;;;;5095095;28;20213;-62
2023/10/20 11:34:26;;;;;;;4.70;1.73;;;19.60;65.90;;;;;;5103767;28;20538;-62
2023/10/20 11:36:54;;;;;;;6.32;2.20;;;19.60;66.00;;;;;;5091924;28;20770;-62
2023/10/20 11:39:24;;;;;;;5.20;1.65;;;19.60;66.00;;;;;;5104168;28;20467;-62
2023/10/20 11:41:53;;;;;;;5.22;1.77;;;19.60;66.10;;;;;;5088358;28;20245;-61
2023/10/20 11:44:22;;;;;;;3.60;2.00;;;19.60;66.10;;;;;;5096452;28;20629;-62
2023/10/20 11:46:49;;;;;;;4.95;1.90;;;19.60;66.10;;;;;;5098444;28;20218;-63
2023/10/20 11:49:18;;;;;;;4.55;2.00;;;19.60;66.30;;;;;;5098539;28;20209;-62
2023/10/20 11:51:45;;;;;;;6.25;2.25;;;19.60;66.40;;;;;;5093338;28;20629;-62
2023/10/20 11:54:13;;;;;;;5.35;1.88;;;19.60;66.50;;;;;;5103512;28;20188;-61
2023/10/20 11:56:41;;;;;;;6.07;1.88;;;19.60;66.50;;;;;;5085251;28;20245;-63
2023/10/20 11:59:08;;;;;;;4.32;1.58;;;19.60;66.50;;;;;;5096198;28;20333;-61
2023/10/20 12:01:35;;;;;;;5.30;1.67;;;19.60;66.60;;;;;;5096552;28;20586;-61
2023/10/20 12:04:05;;;;;;;4.03;1.75;;;19.60;66.70;;;;;;5101092;28;20189;-63
2023/10/20 12:06:36;;;;;;;6.07;1.58;;;19.70;66.70;;;;;;5099889;28;20217;-63
2023/10/20 12:09:06;;;;;;;5.88;1.60;;;19.70;66.80;;;;;;5101225;28;20679;-64
2023/10/20 12:11:36;;;;;;;4.60;1.60;;;19.70;66.90;;;;;;5095174;28;20217;-61
2023/10/20 12:14:03;;;;;;;6.05;1.63;;;19.80;66.90;;;;;;5079841;28;20194;-63
2023/10/20 12:16:30;;;;;;;5.40;1.70;;;19.80;66.90;;;;;;5103260;28;20292;-62
2023/10/20 12:19:03;;;;;;;4.70;1.88;;;19.90;66.90;;;;;;5095538;28;20204;-64
2023/10/20 12:21:31;;;;;;;2.97;1.27;;;19.90;67.10;;;;;;5091623;28;20302;-63
2023/10/20 12:23:59;;;;;;;4.43;1.60;;;19.90;66.80;;;;;;5098320;28;20214;-63
2023/10/20 12:26:26;;;;;;;6.57;1.50;;;20.00;66.90;;;;;;5094607;28;20232;-63
2023/10/20 12:28:55;;;;;;;3.33;1.50;;;20.00;66.90;;;;;;5095817;28;20204;-64
2023/10/20 12:31:22;;;;;;;9.35;2.35;;;20.00;66.50;;;;;;5087634;28;20295;-61
2023/10/20 12:33:49;;;;;;;13.40;9.45;;;20.00;66.40;;;;;;5100732;28;20197;-63
2023/10/20 12:36:17;;;;;;;90.85;68.88;;;20.00;66.30;;;;;;5088266;28;20251;-64
2023/10/20 12:38:44;;;;;;;117.35;81.35;;;20.00;66.00;;;;;;5094459;28;20276;-62
2023/10/20 12:41:17;;;;;;;118.55;90.88;;;20.10;66.10;;;;;;5099145;28;20234;-64
2023/10/20 12:43:47;;;;;;;165.63;112.28;;;20.10;66.10;;;;;;5087266;28;20199;-63
2023/10/20 12:46:14;;;;;;;205.93;129.20;;;20.10;66.10;;;;;;5080944;28;20198;-63
2023/10/20 12:48:42;;;;;;;207.60;132.57;;;20.10;66.10;;;;;;5094317;28;20197;-63
2023/10/20 12:51:10;;;;;;;187.70;115.32;;;20.10;66.10;;;;;;5106098;28;20217;-63
2023/10/20 12:53:47;;;;;;;170.73;106.20;;;20.10;66.10;;;;;;5097039;28;20229;-56
2023/10/20 12:56:16;;;;;;;110.28;70.72;;;20.20;66.20;;;;;;5089985;28;20193;-58
2023/10/20 12:58:44;;;;;;;103.88;65.00;;;20.20;66.20;;;;;;5090001;28;20301;-64
2023/10/20 13:01:11;;;;;;;90.50;52.28;;;20.20;66.50;;;;;;5090175;28;20237;-62
2023/10/20 13:03:38;;;;;;;119.60;76.22;;;20.20;66.40;;;;;;5095148;28;20247;-63
2023/10/20 13:06:06;;;;;;;171.02;118.68;;;20.20;66.20;;;;;;5088520;28;20198;-63
2023/10/20 13:08:34;;;;;;;157.73;103.47;;;20.20;66.20;;;;;;5092865;28;20267;-62
2023/10/20 13:11:01;;;;;;;139.95;96.82;;;20.20;66.20;;;;;;5091669;28;20209;-64
2023/10/20 13:13:32;;;;;;;145.50;96.95;;;20.20;66.20;;;;;;5093130;28;20217;-62
2023/10/20 13:16:06;;;;;;;128.18;85.72;;;20.20;66.20;;;;;;5086454;28;20213;-63
2023/10/20 13:18:34;;;;;;;70.55;40.47;;;20.30;66.40;;;;;;5091537;28;20213;-64
2023/10/20 13:21:05;;;;;;;67.15;42.65;;;20.30;66.30;;;;;;5089685;28;20198;-64
2023/10/20 13:23:46;;;;;;;56.53;38.38;;;20.10;66.10;;;;;;5088305;28;20288;-64
2023/10/20 13:26:23;;;;;;;;;;;;;;;;;;;;;
2023/10/20 13:28:52;;;;;;;47.72;28.92;;;20.10;68.00;;;;;;5093066;28;20685;-63
2023/10/20 13:31:21;;;;;;;23.20;13.10;;;20.10;67.80;;;;;;5088653;28;20224;-64
2023/10/20 13:33:52;;;;;;;31.63;14.35;;;20.10;67.50;;;;;;5099582;28;20217;-63
2023/10/20 13:36:22;;;;;;;26.58;14.15;;;20.00;67.60;;;;;;5097951;28;20193;-62
2023/10/20 13:38:49;;;;;;;32.08;9.15;;;20.00;68.00;;;;;;5092283;28;20214;-62
2023/10/20 13:41:16;;;;;;;17.67;8.52;;;20.00;67.10;;;;;;5089132;28;20259;-64
2023/10/20 13:43:44;;;;;;;19.08;7.85;;;19.90;66.40;;;;;;5098989;28;20332;-60
2023/10/20 13:46:12;;;;;;;22.27;7.88;;;19.70;66.10;;;;;;5101453;28;20201;-64